createdAt,value
2022-09-17T00:01:07.407Z,69.70
2022-09-17T00:03:35.110Z,69.70
2022-09-17T00:06:04.459Z,71.80
2022-09-17T00:08:32.181Z,70.10
2022-09-17T00:11:05.992Z,70.70
2022-09-17T00:13:32.720Z,70.50
2022-09-17T00:15:59.618Z,73.90
2022-09-17T00:18:26.994Z,72.90
2022-09-17T00:20:53.809Z,72.90
2022-09-17T00:23:20.542Z,71.80
2022-09-17T00:25:47.271Z,72.00
2022-09-17T00:28:14.853Z,75.10
2022-09-17T00:30:43.233Z,74.50
2022-09-17T00:33:13.639Z,74.50
2022-09-17T00:35:40.402Z,74.50
2022-09-17T00:38:07.241Z,75.10
2022-09-17T00:40:34.856Z,74.50
2022-09-17T00:43:02.294Z,74.20
2022-09-17T00:45:32.099Z,75.50
2022-09-17T00:48:05.469Z,75.90
2022-09-17T00:50:41.585Z,72.90
2022-09-17T00:53:16.873Z,74.10
2022-09-17T00:55:48.770Z,74.10
2022-09-17T00:58:18.286Z,74.50
2022-09-17T01:00:46.981Z,73.70
2022-09-17T01:03:14.228Z,75.50
2022-09-17T01:05:54.339Z,75.40
2022-09-17T01:08:27.051Z,74.40
2022-09-17T01:11:25.513Z,75.80
2022-09-17T01:13:58.321Z,75.80
2022-09-17T01:16:34.212Z,74.70
2022-09-17T01:19:38.954Z,84.00
2022-09-17T01:22:26.048Z,90.60
2022-09-17T01:25:17.427Z,97.00
2022-09-17T01:28:02.121Z,97.70
2022-09-17T01:30:38.893Z,97.10
2022-09-17T01:33:26.319Z,96.60
2022-09-17T01:35:59.264Z,87.40
2022-09-17T01:38:49.473Z,79.10
2022-09-17T01:41:33.615Z,79.40
2022-09-17T01:44:39.806Z,77.40
2022-09-17T01:47:23.163Z,73.70
2022-09-17T01:49:55.212Z,69.70
2022-09-17T01:52:25.368Z,67.10
2022-09-17T01:54:56.716Z,70.00
2022-09-17T01:57:44.139Z,72.20
2022-09-17T02:00:17.462Z,73.20
2022-09-17T02:02:56.232Z,73.20
2022-09-17T02:05:35.814Z,73.30
2022-09-17T02:08:14.831Z,74.70
2022-09-17T02:10:48.632Z,75.00
2022-09-17T02:13:24.297Z,75.60
2022-09-17T02:16:07.395Z,74.00
2022-09-17T02:18:44.919Z,72.20
2022-09-17T02:21:45.214Z,70.70
2022-09-17T02:24:27.393Z,70.30
2022-09-17T02:27:03.065Z,68.40
2022-09-17T02:29:42.177Z,71.50
2022-09-17T02:32:09.876Z,71.30
2022-09-17T02:34:36.749Z,68.80
2022-09-17T02:37:04.669Z,69.80
2022-09-17T02:39:31.802Z,69.40
2022-09-17T02:42:20.712Z,65.90
2022-09-17T02:45:24.974Z,67.10
2022-09-17T02:47:57.908Z,63.50
2022-09-17T02:50:48.734Z,70.70
2022-09-17T02:53:33.618Z,68.60
2022-09-17T02:56:16.152Z,66.70
2022-09-17T02:58:53.695Z,62.60
2022-09-17T03:01:34.213Z,63.90
2022-09-17T03:04:03.681Z,66.20
2022-09-17T03:06:30.679Z,64.40
2022-09-17T03:08:57.394Z,67.80
2022-09-17T03:11:25.076Z,62.00
2022-09-17T03:13:52.043Z,64.10
2022-09-17T03:16:18.847Z,63.70
2022-09-17T03:18:45.554Z,63.90
2022-09-17T03:21:12.681Z,65.60
2022-09-17T03:23:39.877Z,64.90
2022-09-17T03:26:06.734Z,65.30
2022-09-17T03:28:33.612Z,63.80
2022-09-17T03:31:00.339Z,65.30
2022-09-17T03:33:27.080Z,64.80
2022-09-17T03:35:53.871Z,62.40
2022-09-17T03:38:20.715Z,65.80
2022-09-17T03:41:01.200Z,63.40
2022-09-17T03:43:28.219Z,65.00
2022-09-17T03:45:55.539Z,63.50
2022-09-17T03:48:23.111Z,61.70
2022-09-17T03:50:50.162Z,61.90
2022-09-17T03:53:17.218Z,61.80
2022-09-17T03:55:44.125Z,63.20
2022-09-17T03:58:11.145Z,61.70
2022-09-17T04:00:38.127Z,61.40
2022-09-17T04:03:05.544Z,59.30
2022-09-17T04:05:32.305Z,61.60
2022-09-17T04:07:59.292Z,59.20
2022-09-17T04:10:26.100Z,61.10
2022-09-17T04:12:52.798Z,61.50
2022-09-17T04:15:19.492Z,64.00
2022-09-17T04:17:46.268Z,60.00
2022-09-17T04:20:13.055Z,57.70
2022-09-17T04:22:39.853Z,58.20
2022-09-17T04:25:07.042Z,57.20
2022-09-17T04:27:33.744Z,61.20
2022-09-17T04:30:01.628Z,60.40
2022-09-17T04:32:28.486Z,62.10
2022-09-17T04:34:55.216Z,58.60
2022-09-17T04:37:22.005Z,61.50
2022-09-17T04:39:48.743Z,62.70
2022-09-17T04:42:16.260Z,62.90
2022-09-17T04:44:43.232Z,63.80
2022-09-17T04:47:09.972Z,65.00
2022-09-17T04:49:36.685Z,63.90
2022-09-17T04:52:03.652Z,64.00
2022-09-17T04:54:30.358Z,64.90
2022-09-17T04:56:57.983Z,64.40
2022-09-17T04:59:24.743Z,66.20
2022-09-17T05:01:51.604Z,65.60
2022-09-17T05:04:18.503Z,65.40
2022-09-17T05:06:45.268Z,67.80
2022-09-17T05:09:12.039Z,66.20
2022-09-17T05:11:38.797Z,66.60
2022-09-17T05:14:05.543Z,66.30
2022-09-17T05:16:32.381Z,67.10
2022-09-17T05:18:59.357Z,67.30
2022-09-17T05:21:26.262Z,67.60
2022-09-17T05:23:53.087Z,68.90
2022-09-17T05:26:19.922Z,70.40
2022-09-17T05:28:46.672Z,70.80
2022-09-17T05:31:16.249Z,70.90
2022-09-17T05:33:43.028Z,71.80
2022-09-17T05:36:09.990Z,70.80
2022-09-17T05:38:36.821Z,70.70
2022-09-17T05:41:07.202Z,72.10
2022-09-17T05:43:34.433Z,73.40
2022-09-17T05:46:05.295Z,73.20
2022-09-17T05:48:32.473Z,72.80
2022-09-17T05:50:59.209Z,72.50
2022-09-17T05:53:25.930Z,72.50
2022-09-17T05:55:59.212Z,73.10
2022-09-17T05:58:27.240Z,73.30
2022-09-17T06:00:56.213Z,71.50
2022-09-17T06:03:23.086Z,70.90
2022-09-17T06:06:00.476Z,69.90
2022-09-17T06:08:28.754Z,68.40
2022-09-17T06:10:58.937Z,67.50
2022-09-17T06:13:28.487Z,67.70
2022-09-17T06:15:55.252Z,69.40
2022-09-17T06:18:22.054Z,65.80
2022-09-17T06:20:56.269Z,67.10
2022-09-17T06:23:24.110Z,65.20
2022-09-17T06:25:57.028Z,64.00
2022-09-17T06:28:24.313Z,65.60
2022-09-17T06:30:54.388Z,63.50
2022-09-17T06:33:21.939Z,64.90
2022-09-17T06:35:48.795Z,62.30
2022-09-17T06:38:16.028Z,61.80
2022-09-17T06:40:42.951Z,63.50
2022-09-17T06:43:09.862Z,64.50
2022-09-17T06:45:36.620Z,63.90
2022-09-17T06:48:06.801Z,61.80
2022-09-17T06:50:33.516Z,62.90
2022-09-17T06:53:00.280Z,63.60
2022-09-17T06:55:27.013Z,57.70
2022-09-17T06:57:53.845Z,55.90
2022-09-17T07:00:20.771Z,56.10
2022-09-17T07:03:01.016Z,55.20
2022-09-17T07:05:29.256Z,53.50
2022-09-17T07:07:56.377Z,56.50
2022-09-17T07:10:23.496Z,54.20
2022-09-17T07:12:50.394Z,53.60
2022-09-17T07:15:17.137Z,54.10
2022-09-17T07:17:44.558Z,54.20
2022-09-17T07:20:11.805Z,52.20
2022-09-17T07:22:38.643Z,51.40
2022-09-17T07:25:06.019Z,49.90
2022-09-17T07:27:32.988Z,47.30
2022-09-17T07:29:59.732Z,49.20
2022-09-17T07:32:28.857Z,50.10
2022-09-17T07:34:55.560Z,46.50
2022-09-17T07:37:22.285Z,49.50
2022-09-17T07:39:49.157Z,45.40
2022-09-17T07:42:16.058Z,51.50
2022-09-17T07:44:42.915Z,45.20
2022-09-17T07:47:10.046Z,47.40
2022-09-17T07:49:36.817Z,48.40
2022-09-17T07:52:06.504Z,42.60
2022-09-17T07:54:39.432Z,44.00
2022-09-17T07:57:06.170Z,45.70
2022-09-17T07:59:33.008Z,42.70
2022-09-17T08:01:59.999Z,43.30
2022-09-17T08:04:26.859Z,43.90
2022-09-17T08:06:53.606Z,45.50
2022-09-17T08:09:21.235Z,40.70
2022-09-17T08:11:56.421Z,41.60
2022-09-17T08:14:28.447Z,43.10
2022-09-17T08:16:56.122Z,41.80
2022-09-17T08:19:22.839Z,39.80
2022-09-17T08:21:49.532Z,44.70
2022-09-17T08:24:16.253Z,43.20
2022-09-17T08:26:43.163Z,42.70
2022-09-17T08:29:11.302Z,42.90
2022-09-17T08:31:38.136Z,39.30
2022-09-17T08:34:10.460Z,35.40
2022-09-17T08:36:37.610Z,36.40
2022-09-17T08:39:04.507Z,36.20
2022-09-17T08:41:46.078Z,41.10
2022-09-17T08:44:25.049Z,34.30
2022-09-17T08:47:01.713Z,34.60
2022-09-17T08:49:36.059Z,35.60
2022-09-17T08:52:24.204Z,35.00
2022-09-17T08:55:18.629Z,36.90
2022-09-17T08:58:22.310Z,35.80
2022-09-17T09:01:23.989Z,35.20
2022-09-17T09:04:19.358Z,35.00
2022-09-17T09:07:08.285Z,34.60
2022-09-17T09:09:44.715Z,33.60
2022-09-17T09:12:22.016Z,33.30
2022-09-17T09:14:57.379Z,35.60
2022-09-17T09:17:29.652Z,37.10
2022-09-17T09:19:56.502Z,36.90
2022-09-17T09:22:35.350Z,36.40
2022-09-17T09:25:16.792Z,35.80
2022-09-17T09:28:01.569Z,35.20
2022-09-17T09:30:38.306Z,36.20
2022-09-17T09:33:11.446Z,38.90
2022-09-17T09:35:41.826Z,38.50
2022-09-17T09:38:24.967Z,34.50
2022-09-17T09:41:12.109Z,32.90
2022-09-17T09:44:05.010Z,31.60
2022-09-17T09:47:01.937Z,32.00
2022-09-17T09:50:03.574Z,27.90
2022-09-17T09:53:04.561Z,32.30
2022-09-17T09:56:17.558Z,27.40
2022-09-17T09:58:44.308Z,26.30
2022-09-17T10:01:17.008Z,26.60
2022-09-17T10:03:46.232Z,24.50
2022-09-17T10:06:17.338Z,24.60
2022-09-17T10:08:50.156Z,27.40
2022-09-17T10:11:22.046Z,28.20
2022-09-17T10:13:49.063Z,31.50
2022-09-17T10:16:25.391Z,33.00
2022-09-17T10:19:07.455Z,38.40
2022-09-17T10:21:35.472Z,36.00
2022-09-17T10:24:05.155Z,37.00
2022-09-17T10:26:37.036Z,31.60
2022-09-17T10:29:11.239Z,34.10
2022-09-17T10:31:48.533Z,33.50
2022-09-17T10:34:26.936Z,31.30
2022-09-17T10:36:56.135Z,31.30
2022-09-17T10:39:38.590Z,30.30
2022-09-17T10:42:11.263Z,29.80
2022-09-17T10:44:39.472Z,29.00
2022-09-17T10:47:29.046Z,31.20
2022-09-17T10:50:24.950Z,27.60
2022-09-17T10:52:57.531Z,29.40
2022-09-17T10:55:33.588Z,33.10
2022-09-17T10:58:07.207Z,30.80
2022-09-17T11:01:03.009Z,25.10
2022-09-17T11:03:41.889Z,25.90
2022-09-17T11:07:06.077Z,26.50
2022-09-17T11:10:07.256Z,27.90
2022-09-17T11:12:42.114Z,26.70
2022-09-17T11:15:20.526Z,25.90
2022-09-17T11:18:09.122Z,23.50
2022-09-17T11:20:58.650Z,22.80
2022-09-17T11:23:58.027Z,25.30
2022-09-17T11:26:27.479Z,26.30
2022-09-17T11:29:15.886Z,27.40
2022-09-17T11:32:04.487Z,25.90
2022-09-17T11:34:35.009Z,27.40
2022-09-17T11:37:14.120Z,25.60
2022-09-17T11:39:52.834Z,26.40
2022-09-17T11:42:24.535Z,24.50
2022-09-17T11:45:03.327Z,26.00
2022-09-17T11:47:36.025Z,24.10
2022-09-17T11:50:23.291Z,23.10
2022-09-17T11:53:04.694Z,27.00
2022-09-17T11:55:40.087Z,25.80
2022-09-17T11:58:27.699Z,29.00
2022-09-17T12:01:02.556Z,24.10
2022-09-17T12:04:00.526Z,23.70
2022-09-17T12:06:37.132Z,25.50
2022-09-17T12:09:25.979Z,24.00
2022-09-17T12:12:26.408Z,28.30
2022-09-17T12:15:14.786Z,25.00
2022-09-17T12:18:08.717Z,23.10
2022-09-17T12:20:45.383Z,25.30
2022-09-17T12:23:18.040Z,22.00
2022-09-17T12:26:18.471Z,22.70
2022-09-17T12:29:06.634Z,24.60
2022-09-17T12:31:56.292Z,24.10
2022-09-17T12:34:51.524Z,27.70
2022-09-17T12:37:30.760Z,27.20
2022-09-17T12:40:42.728Z,27.80
2022-09-17T12:43:28.778Z,27.20
2022-09-17T12:46:16.494Z,27.40
2022-09-17T12:49:07.928Z,25.70
2022-09-17T12:52:00.679Z,27.70
2022-09-17T12:54:45.527Z,29.50
2022-09-17T12:57:22.128Z,26.10
2022-09-17T13:00:06.845Z,22.60
2022-09-17T13:02:43.407Z,24.80
2022-09-17T13:05:21.561Z,22.70
2022-09-17T13:08:07.575Z,22.80
2022-09-17T13:11:11.562Z,25.30
2022-09-17T13:13:41.111Z,22.80
2022-09-17T13:16:33.565Z,26.00
2022-09-17T13:19:33.673Z,26.40
2022-09-17T13:22:21.306Z,26.80
2022-09-17T13:25:08.599Z,27.10
2022-09-17T13:27:38.718Z,24.90
2022-09-17T13:30:07.972Z,25.10
2022-09-17T13:32:39.745Z,23.90
2022-09-17T13:35:15.290Z,22.10
2022-09-17T13:37:52.834Z,20.20
2022-09-17T13:40:34.329Z,20.40
2022-09-17T13:43:04.311Z,20.70
2022-09-17T13:45:33.772Z,18.60
2022-09-17T13:48:02.166Z,20.70
2022-09-17T13:50:36.895Z,21.30
2022-09-17T13:53:15.535Z,20.10
2022-09-17T13:55:45.105Z,25.40
2022-09-17T13:58:21.054Z,21.10
2022-09-17T14:01:11.760Z,22.00
2022-09-17T14:03:42.016Z,23.30
2022-09-17T14:06:08.745Z,19.10
2022-09-17T14:08:44.769Z,21.80
2022-09-17T14:11:23.576Z,22.50
2022-09-17T14:13:52.181Z,18.80
2022-09-17T14:16:47.277Z,18.60
2022-09-17T14:19:36.903Z,18.70
2022-09-17T14:22:17.427Z,23.10
2022-09-17T14:24:44.352Z,21.80
2022-09-17T14:27:25.947Z,23.00
2022-09-17T14:30:14.736Z,22.50
2022-09-17T14:33:00.606Z,25.60
2022-09-17T14:35:48.000Z,27.20
2022-09-17T14:38:25.234Z,26.60
2022-09-17T14:41:00.375Z,23.70
2022-09-17T14:43:57.360Z,25.70
2022-09-17T14:46:48.871Z,24.30
2022-09-17T14:49:28.126Z,20.90
2022-09-17T14:51:56.767Z,21.20
2022-09-17T14:54:30.321Z,20.30
2022-09-17T14:57:17.020Z,22.90
2022-09-17T14:59:53.008Z,19.00
2022-09-17T15:02:44.166Z,17.70
2022-09-17T15:05:31.870Z,18.30
2022-09-17T15:08:10.486Z,17.60
2022-09-17T15:10:46.070Z,21.20
2022-09-17T15:13:35.465Z,17.80
2022-09-17T15:16:04.810Z,19.80
2022-09-17T15:18:44.040Z,19.90
2022-09-17T15:21:24.279Z,20.00
2022-09-17T15:23:53.599Z,17.80
2022-09-17T15:26:27.144Z,17.10
2022-09-17T15:28:55.952Z,19.80
2022-09-17T15:31:23.662Z,16.90
2022-09-17T15:33:50.883Z,16.60
2022-09-17T15:36:28.020Z,19.40
2022-09-17T15:38:54.753Z,19.10
2022-09-17T15:41:35.332Z,17.30
2022-09-17T15:44:32.122Z,17.00
2022-09-17T15:47:39.271Z,20.80
2022-09-17T15:50:21.537Z,18.80
2022-09-17T15:52:49.867Z,18.00
2022-09-17T15:55:35.480Z,22.20
2022-09-17T15:58:06.055Z,19.40
2022-09-17T16:00:32.878Z,17.90
2022-09-17T16:03:43.548Z,19.60
2022-09-17T16:06:19.620Z,20.80
2022-09-17T16:08:51.604Z,20.00
2022-09-17T16:11:21.102Z,22.60
2022-09-17T16:13:48.675Z,23.20
2022-09-17T16:16:24.399Z,22.90
2022-09-17T16:18:51.270Z,22.90
2022-09-17T16:21:19.984Z,23.60
2022-09-17T16:23:46.843Z,25.50
2022-09-17T16:26:20.410Z,24.20
2022-09-17T16:28:49.657Z,24.30
2022-09-17T16:31:16.483Z,25.50
2022-09-17T16:33:43.243Z,24.50
2022-09-17T16:36:10.055Z,24.50
2022-09-17T16:38:37.064Z,24.70
2022-09-17T16:41:06.632Z,24.60
2022-09-17T16:43:34.636Z,27.70
2022-09-17T16:46:04.029Z,26.50
2022-09-17T16:48:33.296Z,26.90
2022-09-17T16:51:01.603Z,26.10
2022-09-17T16:53:28.354Z,26.90
2022-09-17T16:55:55.104Z,27.40
2022-09-17T16:58:21.843Z,28.50
2022-09-17T17:00:48.589Z,26.80
2022-09-17T17:03:16.013Z,27.70
2022-09-17T17:05:43.518Z,29.20
2022-09-17T17:08:10.559Z,29.70
2022-09-17T17:10:40.707Z,28.40
2022-09-17T17:13:07.413Z,29.20
2022-09-17T17:15:34.134Z,28.50
2022-09-17T17:18:00.975Z,28.40
2022-09-17T17:20:27.776Z,28.10
2022-09-17T17:22:55.358Z,27.90
2022-09-17T17:25:23.977Z,29.00
2022-09-17T17:27:50.709Z,28.40
2022-09-17T17:30:17.839Z,29.80
2022-09-17T17:32:48.773Z,29.60
2022-09-17T17:35:15.765Z,30.80
2022-09-17T17:37:42.709Z,31.00
2022-09-17T17:40:10.325Z,32.10
2022-09-17T17:42:39.590Z,32.20
2022-09-17T17:45:07.518Z,33.30
2022-09-17T17:47:34.818Z,34.50
2022-09-17T17:50:01.705Z,34.80
2022-09-17T17:52:28.554Z,34.40
2022-09-17T17:54:55.311Z,35.90
2022-09-17T17:57:22.126Z,35.70
2022-09-17T17:59:48.840Z,36.00
2022-09-17T18:02:15.665Z,37.10
2022-09-17T18:04:42.576Z,36.70
2022-09-17T18:07:09.335Z,37.90
2022-09-17T18:09:36.110Z,37.90
2022-09-17T18:12:03.147Z,39.10
2022-09-17T18:14:30.059Z,39.20
2022-09-17T18:16:56.798Z,38.50
2022-09-17T18:19:23.561Z,38.90
2022-09-17T18:21:50.277Z,39.30
2022-09-17T18:24:17.077Z,37.90
2022-09-17T18:26:43.867Z,37.10
2022-09-17T18:29:11.847Z,38.80
2022-09-17T18:31:38.857Z,38.80
2022-09-17T18:34:08.232Z,38.90
2022-09-17T18:36:36.144Z,39.60
2022-09-17T18:41:52.758Z,40.70
2022-09-17T18:44:21.845Z,40.90
2022-09-17T18:46:50.249Z,40.80
2022-09-17T18:49:17.246Z,42.40
2022-09-17T18:51:44.106Z,41.00
2022-09-17T18:54:12.829Z,41.00
2022-09-17T18:56:41.697Z,41.10
2022-09-17T18:59:09.753Z,40.80
2022-09-17T19:01:36.634Z,42.20
2022-09-17T19:04:04.080Z,41.90
2022-09-17T19:06:32.299Z,43.50
2022-09-17T19:09:00.898Z,43.60
2022-09-17T19:11:27.921Z,38.20
2022-09-17T19:13:54.726Z,41.80
2022-09-17T19:16:21.573Z,43.40
2022-09-17T19:18:48.431Z,45.40
2022-09-17T19:21:17.446Z,45.00
2022-09-17T19:23:47.130Z,43.20
2022-09-17T19:26:19.535Z,45.00
2022-09-17T19:28:46.762Z,47.00
2022-09-17T19:31:15.817Z,45.60
2022-09-17T19:33:43.433Z,46.40
2022-09-17T19:36:15.875Z,45.70
2022-09-17T19:38:43.239Z,46.00
2022-09-17T19:41:13.155Z,46.50
2022-09-17T19:43:40.650Z,46.70
2022-09-17T19:46:13.879Z,46.60
2022-09-17T19:48:48.621Z,45.30
2022-09-17T19:51:16.618Z,45.60
2022-09-17T19:53:43.644Z,48.40
2022-09-17T19:56:14.996Z,46.50
2022-09-17T19:58:42.647Z,46.10
2022-09-17T20:01:09.968Z,47.80
2022-09-17T20:03:42.857Z,47.90
2022-09-17T20:06:17.516Z,45.60
2022-09-17T20:08:49.389Z,45.70
2022-09-17T20:11:17.197Z,47.30
2022-09-17T20:13:44.290Z,46.70
2022-09-17T20:16:13.730Z,46.50
2022-09-17T20:18:40.681Z,46.60
2022-09-17T20:21:25.826Z,47.00
2022-09-17T20:23:52.581Z,47.10
2022-09-17T20:26:19.302Z,46.90
2022-09-17T20:28:46.746Z,46.30
2022-09-17T20:31:22.112Z,48.30
2022-09-17T20:33:53.195Z,46.80
2022-09-17T20:36:22.550Z,47.10
2022-09-17T20:41:40.462Z,46.40
2022-09-17T20:44:07.982Z,47.00
2022-09-17T20:46:34.823Z,46.70
2022-09-17T20:49:01.664Z,47.00
2022-09-17T20:51:30.335Z,47.30
2022-09-17T20:53:57.695Z,46.80
2022-09-17T20:56:30.254Z,47.60
2022-09-17T20:59:08.621Z,47.30
2022-09-17T21:01:37.625Z,46.10
2022-09-17T21:04:07.231Z,45.90
2022-09-17T21:06:41.843Z,46.70
2022-09-17T21:09:15.848Z,46.60
2022-09-17T21:11:47.183Z,47.40
2022-09-17T21:14:15.832Z,47.90
2022-09-17T21:16:43.003Z,47.10
2022-09-17T21:19:12.290Z,46.30
2022-09-17T21:21:39.175Z,46.20
2022-09-17T21:24:07.338Z,46.70
2022-09-17T21:26:34.932Z,46.80
2022-09-17T21:29:02.352Z,47.70
2022-09-17T21:31:32.678Z,47.40
2022-09-17T21:34:05.441Z,47.00
2022-09-17T21:36:34.748Z,47.00
2022-09-17T21:39:04.330Z,48.50
2022-09-17T21:41:31.742Z,48.70
2022-09-17T21:43:59.161Z,50.40
2022-09-17T21:46:28.083Z,50.70
2022-09-17T21:48:57.401Z,50.20
2022-09-17T21:51:30.241Z,51.00
2022-09-17T21:54:00.722Z,50.70
2022-09-17T21:56:28.719Z,50.30
2022-09-17T21:59:01.191Z,48.40
2022-09-17T22:01:43.953Z,48.10
2022-09-17T22:04:13.143Z,47.40
2022-09-17T22:06:40.915Z,45.60
2022-09-17T22:09:12.501Z,47.20
2022-09-17T22:11:39.253Z,45.50
2022-09-17T22:14:11.021Z,46.90
2022-09-17T22:16:44.348Z,46.00
2022-09-17T22:19:13.156Z,47.30
2022-09-17T22:21:45.978Z,46.10
2022-09-17T22:24:14.615Z,45.90
2022-09-17T22:26:44.543Z,46.30
2022-09-17T22:29:14.057Z,46.10
2022-09-17T22:31:41.666Z,47.30
2022-09-17T22:34:10.743Z,48.40
2022-09-17T22:36:38.393Z,47.30
2022-09-17T22:39:06.405Z,48.50
2022-09-17T22:41:36.113Z,51.30
2022-09-17T22:44:06.118Z,52.00
2022-09-17T22:46:39.456Z,50.20
2022-09-17T22:49:08.067Z,52.30
2022-09-17T22:51:34.943Z,54.40
2022-09-17T22:54:01.869Z,55.00
2022-09-17T22:56:29.385Z,55.00
2022-09-17T22:58:57.606Z,55.40
2022-09-17T23:01:30.075Z,55.20
2022-09-17T23:03:58.092Z,57.00
2022-09-17T23:06:29.508Z,55.50
2022-09-17T23:08:57.118Z,54.00
2022-09-17T23:11:27.076Z,57.00
2022-09-17T23:14:01.959Z,58.60
2022-09-17T23:16:33.443Z,58.10
2022-09-17T23:19:00.251Z,57.70
2022-09-17T23:21:26.953Z,57.80
2022-09-17T23:23:53.675Z,58.50
2022-09-17T23:26:25.854Z,56.10
2022-09-17T23:28:53.112Z,58.10
2022-09-17T23:31:25.746Z,56.90
2022-09-17T23:33:53.337Z,58.60
2022-09-17T23:36:22.671Z,59.70
2022-09-17T23:38:50.411Z,61.00
2022-09-17T23:41:26.812Z,60.80
2022-09-17T23:43:55.993Z,59.80
2022-09-17T23:46:24.545Z,59.90
2022-09-17T23:48:53.427Z,56.70
2022-09-17T23:51:24.856Z,57.80
2022-09-17T23:53:52.233Z,58.20
2022-09-17T23:56:22.006Z,59.70
2022-09-17T23:58:49.938Z,59.80
